ميلانو, Italy

01:25 AM CEST on أعس×س 30, 2016 (GMT +0200)
Via Piave | | Change Station
Active Advisory: >>

Elev 748 ft 45.64 °N, 8.77 °E | Updated 1 minute ago

Rain
مطر
74.3 °F
Feels Like 75 °F
N
1.9
ريح متغير ريح from WNW
Gusts 3.1 mph

هذا اليوم
High -- | Low -- °F
--% Chance of Precip.
Yesterday
High -- | Low -- °F
Precip. -- في
الضغط 30.04 في
وضوح الرؤية 6.2 أميال
سحابات غيوم متفرقة 3000 ft
غائم كلياً 9000 ft
مؤشر الحرارة 75 °F
نقطة الندى 66 °F
الرطوبة 76%
Rainfall 0.02 في
عمق الثلج Not available.
6:44 AM 8:06 PM
الهلال الأخير, 6% visible
METAR LIMC 292320Z 01003KT 340V070 9999 RA SCT030 BKN090 21/19 Q1017 NOSIG
الضغط 30.04 في
وضوح الرؤية 6.2 أميال
سحابات غيوم متفرقة 3000 ft
غائم كلياً 9000 ft
مؤشر الحرارة 75 °F
نقطة الندى 66 °F
الرطوبة 76%
Rainfall 0.02 في
عمق الثلج Not available.
6:44 AM 8:06 PM
الهلال الأخير, 6% visible
METAR LIMC 292320Z 01003KT 340V070 9999 RA SCT030 BKN090 21/19 Q1017 NOSIG

10-Day Weather Forecast

×

Almanac

علم الفلك

Aug. 30, 2016 Rise Set
Actual Time
Civil Twilight
Nautical Twilight
Astronomical Twilight
قمر
Length Of Visible Light
طول الیوم
Tomorrow will be .
, % of the Moon is Illuminated

Today's Extremes

Country Highs Country Lows

Community

WunderPhotos

Upload Photos

1,935,695 photos uploaded!

WunderBlog® & News

Nearby

جودة الهواء

  جودة الهواء AQ Index Pollutant
Not available.

عمق الثلج

Station Depth Elevation

Earthquake Activity

City Distance Mag. Time & Date
Minimum magnitude displayed is 2.5.

Coastal Water Temperatures

مكان درجات الحرارة

Stations

Nearby Weather Stations

Station Location الحرارة رياح باردة نقطة الندى الرطوبة ريح Precip. Elev تحديث Type